Time;durP1;ratioP1;P1;durP2;ratioP2;P2;SDS_P1;SDS_P2;PMS_P1;PMS_P2;Temp;Humidity;BMP_temperature;BMP_pressure;BME280_temperature;BME280_humidity;BME280_pressure;Samples;Min_cycle;Max_cycle;Signal;HPM_P1;HPM_P2
2022/11/01 00:01:43;;;;;;;19.73;15.77;;;12.70;99.90;;;;;;4978404;28;89561;-31
2022/11/01 00:04:09;;;;;;;24.00;16.83;;;12.70;99.90;;;;;;4978776;28;90005;-34
2022/11/01 00:06:35;;;;;;;20.55;16.13;;;12.70;99.90;;;;;;4979521;28;88917;-30
2022/11/01 00:09:02;;;;;;;19.85;16.35;;;12.70;99.90;;;;;;4978195;28;89847;-32
2022/11/01 00:11:28;;;;;;;19.25;16.08;;;12.70;99.90;;;;;;4978093;28;90616;-32
2022/11/01 00:13:53;;;;;;;20.38;15.57;;;12.70;99.90;;;;;;4978321;28;91977;-31
2022/11/01 00:16:19;;;;;;;23.73;16.02;;;12.70;99.90;;;;;;4978769;28;89324;-30
2022/11/01 00:18:46;;;;;;;21.33;14.93;;;12.70;99.90;;;;;;4978507;28;90158;-31
2022/11/01 00:21:12;;;;;;;22.50;15.43;;;12.70;99.90;;;;;;4978493;28;89758;-32
2022/11/01 00:23:38;;;;;;;20.00;14.43;;;12.60;99.90;;;;;;4978158;28;90111;-31
2022/11/01 00:26:05;;;;;;;21.05;14.43;;;12.60;99.90;;;;;;4977413;28;88904;-30
2022/11/01 00:28:31;;;;;;;26.95;15.32;;;12.60;99.90;;;;;;4978151;28;90472;-28
2022/11/01 00:30:57;;;;;;;16.55;14.80;;;12.60;99.90;;;;;;4978318;28;90011;-31
2022/11/01 00:33:23;;;;;;;25.73;16.88;;;12.60;99.90;;;;;;4978970;28;89605;-30
2022/11/01 00:35:48;;;;;;;21.02;16.08;;;12.60;99.90;;;;;;4979835;28;90592;-30
2022/11/01 00:38:15;;;;;;;32.10;16.42;;;12.60;99.90;;;;;;4981528;28;89997;-29
2022/11/01 00:40:42;;;;;;;18.90;14.75;;;12.60;99.90;;;;;;4981531;28;89774;-31
2022/11/01 00:43:08;;;;;;;16.35;14.50;;;12.60;99.90;;;;;;4981670;28;90274;-29
2022/11/01 00:45:34;;;;;;;19.15;12.30;;;12.60;99.90;;;;;;4982210;28;89540;-32
2022/11/01 00:47:59;;;;;;;16.60;13.63;;;12.70;99.90;;;;;;4980893;28;90115;-31
2022/11/01 00:50:25;;;;;;;25.77;14.70;;;12.70;99.90;;;;;;4981767;28;89948;-32
2022/11/01 00:52:50;;;;;;;19.30;12.57;;;12.70;99.90;;;;;;4981349;28;90177;-32
2022/11/01 00:55:16;;;;;;;22.30;13.73;;;12.80;99.90;;;;;;4982013;28;88872;-32
2022/11/01 00:57:45;;;;;;;21.33;14.48;;;12.80;99.90;;;;;;4980500;28;90462;-32
2022/11/01 01:00:13;;;;;;;20.83;14.98;;;12.80;99.90;;;;;;4981100;28;91387;-29
2022/11/01 01:02:39;;;;;;;19.83;13.50;;;12.80;99.90;;;;;;4981576;28;90071;-30
2022/11/01 01:05:05;;;;;;;19.65;12.65;;;12.70;99.90;;;;;;4981390;28;88407;-30
2022/11/01 01:07:31;;;;;;;15.65;12.90;;;12.80;99.90;;;;;;4981734;28;90530;-29
2022/11/01 01:09:56;;;;;;;19.23;12.77;;;12.90;99.90;;;;;;4980718;28;89613;-29
2022/11/01 01:12:22;;;;;;;18.45;12.00;;;12.90;99.90;;;;;;4981622;28;89955;-31
2022/11/01 01:14:48;;;;;;;19.40;11.95;;;12.90;99.90;;;;;;4981325;28;88056;-33
2022/11/01 01:17:14;;;;;;;14.55;10.68;;;13.00;99.90;;;;;;4981271;28;90201;-34
2022/11/01 01:19:40;;;;;;;17.00;11.80;;;13.10;99.90;;;;;;4981191;28;89113;-32
2022/11/01 01:22:05;;;;;;;16.50;10.73;;;13.20;99.90;;;;;;4981270;28;89174;-31
2022/11/01 01:24:31;;;;;;;18.45;11.35;;;13.30;99.90;;;;;;4981267;28;89982;-31
2022/11/01 01:26:57;;;;;;;19.30;11.15;;;13.40;99.90;;;;;;4980961;28;89652;-32
2022/11/01 01:29:23;;;;;;;16.05;12.15;;;13.50;99.90;;;;;;4981039;28;89877;-31
2022/11/01 01:31:49;;;;;;;14.30;10.55;;;13.60;99.90;;;;;;4980880;28;89631;-30
2022/11/01 01:34:15;;;;;;;16.38;11.57;;;13.70;99.90;;;;;;4980879;28;89325;-29
2022/11/01 01:36:41;;;;;;;13.10;10.48;;;13.80;99.90;;;;;;4981295;28;89604;-32
2022/11/01 01:39:06;;;;;;;17.85;11.95;;;13.90;99.90;;;;;;4980414;28;89618;-29
2022/11/01 01:44:50;;;;;;;11.70;10.20;;;14.10;99.90;;;;;;4938006;28;89985;-33
2022/11/01 01:47:28;;;;;;;11.60;9.85;;;14.10;99.90;;;;;;4971223;28;90154;-31
2022/11/01 01:49:59;;;;;;;14.27;11.10;;;14.20;99.90;;;;;;4980801;28;90523;-30
2022/11/01 01:52:27;;;;;;;16.50;10.60;;;14.20;99.90;;;;;;4981350;28;90447;-30
2022/11/01 01:54:53;;;;;;;13.32;10.40;;;14.20;99.90;;;;;;4980492;28;87569;-28
2022/11/01 01:57:19;;;;;;;19.00;9.93;;;14.20;99.90;;;;;;4981028;28;90395;-29
2022/11/01 01:59:46;;;;;;;18.23;9.32;;;14.30;99.90;;;;;;4981526;28;89618;-31
2022/11/01 02:02:12;;;;;;;15.82;9.05;;;14.30;99.90;;;;;;4981566;28;90305;-33
2022/11/01 02:04:51;;;;;;;19.35;10.20;;;14.20;99.90;;;;;;4980590;28;88058;-30
2022/11/01 02:07:17;;;;;;;9.18;8.27;;;14.20;99.90;;;;;;4980945;28;91423;-28
2022/11/01 02:09:43;;;;;;;15.15;10.02;;;14.20;99.90;;;;;;4981124;28;89410;-30
2022/11/01 02:12:13;;;;;;;13.55;9.50;;;14.30;99.90;;;;;;4980559;28;89498;-29
2022/11/01 02:14:41;;;;;;;17.85;10.82;;;14.30;99.90;;;;;;4977907;28;89315;-29
2022/11/01 02:17:37;;;;;;;16.88;10.93;;;14.30;99.90;;;;;;4979808;28;89957;-28
2022/11/01 02:20:21;;;;;;;15.82;9.55;;;14.30;99.90;;;;;;4969994;28;90149;-30
2022/11/01 02:23:16;;;;;;;11.57;10.18;;;14.30;99.90;;;;;;4970712;28;89364;-29
2022/11/01 02:25:49;;;;;;;11.80;9.38;;;14.30;99.90;;;;;;4966979;28;88227;-31
2022/11/01 02:28:35;;;;;;;11.95;10.23;;;14.30;99.90;;;;;;4981230;28;88190;-32
2022/11/01 02:31:35;;;;;;;12.40;8.80;;;14.30;99.90;;;;;;4960223;28;90301;-31
2022/11/01 02:34:11;;;;;;;11.60;8.75;;;14.30;99.90;;;;;;4969699;28;89559;-33
2022/11/01 02:36:43;;;;;;;13.30;9.43;;;14.30;99.90;;;;;;4980931;28;89363;-29
2022/11/01 02:39:22;;;;;;;18.52;9.60;;;14.30;99.90;;;;;;4981299;28;88870;-30
2022/11/01 02:41:56;;;;;;;12.20;9.60;;;14.30;99.90;;;;;;4980266;28;90943;-32
2022/11/01 02:44:27;;;;;;;15.85;10.05;;;14.30;99.90;;;;;;4980130;28;90323;-29
2022/11/01 02:47:00;;;;;;;13.18;10.15;;;14.30;99.90;;;;;;4979573;28;89503;-28
2022/11/01 02:49:41;;;;;;;21.88;11.05;;;14.40;99.90;;;;;;4966309;28;89233;-28
2022/11/01 02:52:11;;;;;;;17.15;10.10;;;14.40;99.90;;;;;;4979969;28;89880;-30
2022/11/01 02:54:43;;;;;;;12.23;8.80;;;14.40;99.90;;;;;;4964571;28;89535;-29
2022/11/01 02:57:35;;;;;;;12.93;9.65;;;14.40;99.90;;;;;;4980176;28;88561;-29
2022/11/01 03:00:23;;;;;;;12.75;9.52;;;14.30;99.90;;;;;;4980630;28;90163;-32
2022/11/01 03:02:56;;;;;;;9.52;8.27;;;14.30;99.90;;;;;;4980423;28;89949;-30
2022/11/01 03:05:36;;;;;;;9.32;8.38;;;14.40;99.90;;;;;;4980612;28;89852;-32
2022/11/01 03:08:09;;;;;;;14.75;9.00;;;14.30;99.90;;;;;;4977919;28;89928;-30
2022/11/01 03:10:49;;;;;;;12.00;9.27;;;14.30;99.90;;;;;;4979557;28;91076;-31
2022/11/01 03:13:33;;;;;;;13.40;8.77;;;14.40;99.90;;;;;;4979726;28;90429;-30
2022/11/01 03:16:25;;;;;;;14.35;8.52;;;14.40;99.90;;;;;;4979396;28;91767;-29
2022/11/01 03:19:29;;;;;;;13.13;8.45;;;14.50;99.90;;;;;;4969109;28;89870;-29
2022/11/01 03:22:18;;;;;;;16.98;10.68;;;14.50;99.90;;;;;;4964624;28;90150;-34
2022/11/01 03:24:50;;;;;;;14.77;9.45;;;14.50;99.90;;;;;;4973819;28;90644;-30
2022/11/01 03:27:31;;;;;;;16.52;8.50;;;14.60;99.90;;;;;;4980308;28;89594;-31
2022/11/01 03:30:08;;;;;;;13.48;8.35;;;14.60;99.90;;;;;;4980197;28;90362;-28
2022/11/01 03:32:42;;;;;;;13.85;8.80;;;14.60;99.90;;;;;;4978320;28;91819;-32
2022/11/01 03:35:13;;;;;;;16.25;9.48;;;14.70;99.90;;;;;;4979589;28;91046;-30
2022/11/01 03:37:42;;;;;;;12.80;8.27;;;14.70;99.90;;;;;;4979278;28;90531;-34
2022/11/01 03:40:09;;;;;;;16.27;8.77;;;14.70;99.90;;;;;;4980030;28;89256;-29
2022/11/01 03:42:37;;;;;;;12.07;7.47;;;14.80;99.90;;;;;;4979980;28;89157;-32
2022/11/01 03:45:08;;;;;;;11.95;8.80;;;14.80;99.90;;;;;;4979221;28;89718;-31
2022/11/01 03:47:34;;;;;;;12.35;8.27;;;14.80;99.90;;;;;;4980395;28;89485;-29
2022/11/01 03:50:14;;;;;;;15.68;8.55;;;14.80;99.90;;;;;;4979609;28;89223;-31
2022/11/01 03:52:40;;;;;;;10.63;8.73;;;14.80;99.90;;;;;;4966824;28;91559;-29
2022/11/01 03:55:19;;;;;;;14.10;9.07;;;14.80;99.90;;;;;;4979325;28;89828;-34
2022/11/01 03:57:53;;;;;;;9.75;7.35;;;14.70;99.90;;;;;;4979496;28;89307;-28
2022/11/01 04:00:23;;;;;;;12.77;8.15;;;14.70;99.90;;;;;;4979552;28;90228;-30
2022/11/01 04:02:50;;;;;;;12.90;8.10;;;14.60;99.90;;;;;;4966438;28;90219;-30
2022/11/01 04:05:17;;;;;;;12.10;7.18;;;14.60;99.90;;;;;;4978851;28;90157;-28
2022/11/01 04:07:43;;;;;;;12.05;7.10;;;14.60;99.90;;;;;;4979207;28;89541;-33
2022/11/01 04:10:10;;;;;;;13.32;7.03;;;14.60;99.90;;;;;;4978561;28;88280;-30
2022/11/01 04:12:35;;;;;;;11.15;7.63;;;14.50;99.90;;;;;;4978765;28;90153;-31
2022/11/01 04:20:34;;;;;;;9.77;6.75;;;14.60;99.90;;;;;;4979481;28;88666;-31
2022/11/01 04:23:00;;;;;;;13.32;6.35;;;14.60;99.90;;;;;;4964801;28;90221;-32
2022/11/01 04:25:26;;;;;;;16.90;7.60;;;14.70;99.90;;;;;;4979036;28;90164;-27
2022/11/01 04:27:51;;;;;;;10.40;7.32;;;14.80;99.90;;;;;;4978996;28;90519;-31
2022/11/01 04:30:17;;;;;;;11.05;6.53;;;14.80;99.90;;;;;;4979451;28;88153;-30
2022/11/01 04:32:43;;;;;;;11.85;7.00;;;14.90;99.90;;;;;;4978757;28;90001;-30
2022/11/01 04:35:11;;;;;;;7.05;6.30;;;14.90;99.90;;;;;;4978998;28;89585;-31
2022/11/01 04:37:37;;;;;;;;;;;14.90;99.90;;;;;;5010530;22;89785;-29
2022/11/01 04:40:06;;;;;;;8.18;5.85;;;14.90;99.90;;;;;;4979492;28;87489;-33
2022/11/01 04:42:34;;;;;;;6.68;6.15;;;15.00;99.90;;;;;;4978723;28;89491;-30
2022/11/01 04:45:00;;;;;;;7.97;6.75;;;15.00;99.90;;;;;;4978430;28;89236;-31
2022/11/01 04:47:26;;;;;;;11.50;6.13;;;15.10;99.90;;;;;;4979191;28;89397;-34
2022/11/01 04:49:52;;;;;;;7.65;6.38;;;15.10;99.90;;;;;;4978130;28;88813;-30
2022/11/01 04:52:17;;;;;;;7.78;6.57;;;15.30;99.90;;;;;;4979218;28;90502;-32
2022/11/01 04:54:43;;;;;;;11.73;6.50;;;15.20;99.90;;;;;;4978699;28;89954;-32
2022/11/01 04:57:21;;;;;;;17.85;6.95;;;15.30;99.90;;;;;;4978263;28;89634;-30
2022/11/01 04:59:51;;;;;;;11.60;6.78;;;15.40;99.90;;;;;;4977950;28;89545;-33
2022/11/01 05:02:17;;;;;;;13.32;6.60;;;15.40;99.90;;;;;;4978617;28;90351;-33
2022/11/01 05:04:43;;;;;;;7.43;6.63;;;15.50;99.90;;;;;;4978811;28;89635;-32
2022/11/01 05:07:08;;;;;;;10.35;6.85;;;15.50;99.90;;;;;;4978551;28;90321;-30
2022/11/01 05:09:34;;;;;;;10.60;6.05;;;15.60;99.90;;;;;;4965338;28;87752;-30
2022/11/01 05:11:59;;;;;;;13.18;6.40;;;15.60;99.90;;;;;;4978652;28;91440;-29
2022/11/01 05:14:25;;;;;;;9.15;6.88;;;15.60;99.90;;;;;;4977969;28;90577;-32
2022/11/01 05:16:54;;;;;;;10.07;5.55;;;15.60;99.90;;;;;;4978879;28;91140;-30
2022/11/01 05:19:20;;;;;;;10.38;6.68;;;15.60;99.90;;;;;;4978933;28;89362;-31
2022/11/01 05:21:46;;;;;;;9.65;5.10;;;15.70;99.90;;;;;;4975263;28;90516;-31
2022/11/01 05:24:11;;;;;;;8.85;6.00;;;15.70;99.90;;;;;;4972397;28;89385;-32
2022/11/01 05:26:37;;;;;;;12.02;5.97;;;15.60;99.90;;;;;;4981557;28;89518;-32
2022/11/01 05:29:03;;;;;;;12.13;5.82;;;15.70;99.90;;;;;;4982225;28;88287;-31
2022/11/01 05:31:28;;;;;;;8.38;5.95;;;15.70;99.90;;;;;;4980737;28;90651;-32
2022/11/01 05:33:54;;;;;;;10.80;6.25;;;15.70;99.90;;;;;;4981881;28;90049;-29
2022/11/01 05:36:19;;;;;;;9.80;6.03;;;15.70;99.90;;;;;;4982037;28;89672;-29
2022/11/01 05:38:45;;;;;;;12.57;7.05;;;15.70;99.90;;;;;;4979238;28;89210;-29
2022/11/01 05:41:11;;;;;;;7.75;5.70;;;15.80;99.90;;;;;;4982363;28;90377;-30
2022/11/01 05:43:36;;;;;;;12.27;6.68;;;15.80;99.90;;;;;;4981446;28;90622;-30
2022/11/01 05:46:06;;;;;;;8.43;6.00;;;15.80;99.90;;;;;;4981833;28;89773;-30
2022/11/01 05:48:32;;;;;;;9.00;5.85;;;15.90;99.90;;;;;;4981644;28;88661;-29
2022/11/01 05:50:58;;;;;;;8.27;5.70;;;15.80;99.90;;;;;;4980711;28;90345;-29
2022/11/01 05:53:23;;;;;;;8.40;6.95;;;15.80;99.90;;;;;;4981072;28;89577;-33
2022/11/01 05:55:50;;;;;;;8.45;5.82;;;15.90;99.90;;;;;;4982193;28;90229;-28
2022/11/01 05:58:15;;;;;;;8.10;5.97;;;15.90;99.90;;;;;;4979809;28;88534;-33
2022/11/01 06:00:41;;;;;;;11.93;6.65;;;15.80;99.90;;;;;;4980731;28;90571;-30
2022/11/01 06:03:07;;;;;;;9.65;4.68;;;15.80;99.90;;;;;;4980797;28;91523;-28
2022/11/01 06:05:32;;;;;;;8.18;5.30;;;15.80;99.90;;;;;;4980649;28;90523;-29
2022/11/01 06:08:00;;;;;;;7.35;5.63;;;15.80;99.90;;;;;;4981425;28;87847;-30
2022/11/01 06:10:26;;;;;;;9.18;5.22;;;15.80;99.90;;;;;;4980851;28;90499;-29
2022/11/01 06:12:53;;;;;;;4.88;4.22;;;15.80;99.90;;;;;;4980245;28;89303;-34
2022/11/01 06:15:19;;;;;;;5.53;3.88;;;15.70;99.90;;;;;;4981181;28;89522;-30
2022/11/01 06:17:44;;;;;;;5.82;4.60;;;15.80;99.90;;;;;;4980692;28;88324;-31
2022/11/01 06:20:10;;;;;;;7.38;3.80;;;15.80;99.90;;;;;;4981062;28;90279;-30
2022/11/01 06:22:36;;;;;;;6.80;4.70;;;15.70;99.90;;;;;;4969682;28;89711;-31
2022/11/01 06:25:04;;;;;;;3.80;3.38;;;15.80;99.90;;;;;;4977387;28;89799;-30
2022/11/01 06:27:29;;;;;;;7.13;3.70;;;15.70;99.90;;;;;;4981089;28;89316;-29
2022/11/01 06:29:55;;;;;;;2.78;2.58;;;15.80;99.90;;;;;;4980421;28;89974;-30
2022/11/01 06:32:20;;;;;;;8.73;3.45;;;15.70;99.90;;;;;;4980543;28;89412;-30
2022/11/01 06:34:46;;;;;;;3.97;2.35;;;15.70;99.90;;;;;;4980640;28;89569;-29
2022/11/01 06:37:12;;;;;;;2.50;2.05;;;15.50;99.90;;;;;;4979704;28;88824;-32
2022/11/01 06:39:37;;;;;;;6.40;2.20;;;15.60;99.90;;;;;;4968969;28;90046;-30
2022/11/01 06:42:03;;;;;;;2.22;1.52;;;15.50;99.90;;;;;;4977550;28;89634;-30
2022/11/01 06:44:29;;;;;;;5.25;2.17;;;15.40;99.90;;;;;;4981297;28;88521;-28
2022/11/01 06:46:54;;;;;;;3.03;1.85;;;15.30;99.90;;;;;;4979343;28;90022;-29
2022/11/01 06:49:20;;;;;;;2.72;2.00;;;15.20;99.90;;;;;;4980253;28;90723;-32
2022/11/01 06:51:46;;;;;;;7.05;2.65;;;15.20;99.90;;;;;;4979655;28;90270;-30
2022/11/01 06:54:12;;;;;;;5.40;1.73;;;15.10;99.90;;;;;;4979568;28;90614;-31
2022/11/01 06:56:38;;;;;;;2.92;2.10;;;15.00;99.90;;;;;;4981126;28;88368;-30
2022/11/01 06:59:04;;;;;;;2.15;1.70;;;14.90;99.90;;;;;;4980041;28;90313;-31
2022/11/01 07:01:30;;;;;;;5.40;2.13;;;14.90;99.90;;;;;;4979806;28;89683;-33
2022/11/01 07:03:55;;;;;;;6.75;1.95;;;14.80;99.90;;;;;;4982017;28;89732;-31
2022/11/01 07:06:23;;;;;;;5.38;2.22;;;14.70;99.90;;;;;;4981471;28;88981;-30
2022/11/01 07:08:49;;;;;;;4.43;1.83;;;14.80;99.90;;;;;;4980865;28;90586;-30
2022/11/01 07:11:14;;;;;;;2.65;1.65;;;14.80;99.90;;;;;;4980187;28;89941;-28
2022/11/01 07:13:40;;;;;;;3.65;1.48;;;14.70;99.90;;;;;;4979093;28;88965;-31
2022/11/01 07:16:06;;;;;;;1.73;1.50;;;14.60;99.90;;;;;;4979632;28;89711;-30
2022/11/01 07:18:33;;;;;;;3.30;1.92;;;14.50;99.90;;;;;;4980424;28;90410;-31
2022/11/01 07:21:02;;;;;;;2.33;2.10;;;14.50;99.90;;;;;;4979204;28;89789;-32
2022/11/01 07:23:28;;;;;;;2.80;1.90;;;14.50;99.90;;;;;;4966152;28;89300;-33
2022/11/01 07:25:54;;;;;;;3.78;1.88;;;14.50;99.90;;;;;;4979915;28;89656;-29
2022/11/01 07:28:19;;;;;;;2.80;2.05;;;14.50;99.90;;;;;;4977982;28;90531;-33
2022/11/01 07:30:50;;;;;;;2.03;1.50;;;14.30;99.90;;;;;;4979452;28;89798;-31
2022/11/01 07:33:16;;;;;;;2.30;1.60;;;14.30;99.90;;;;;;4979847;28;89669;-33
2022/11/01 07:35:42;;;;;;;7.38;2.67;;;14.20;99.90;;;;;;4979171;28;87977;-29
2022/11/01 07:38:09;;;;;;;4.05;1.75;;;14.20;99.90;;;;;;4979100;28;90390;-33
2022/11/01 07:40:35;;;;;;;3.63;2.17;;;14.20;99.90;;;;;;4979526;28;90370;-31
2022/11/01 07:43:01;;;;;;;2.10;1.52;;;14.10;99.90;;;;;;4979795;28;90238;-33
2022/11/01 07:45:29;;;;;;;2.88;2.03;;;14.30;99.90;;;;;;4979265;28;89404;-32
2022/11/01 07:48:01;;;;;;;2.75;1.50;;;14.40;99.90;;;;;;4979674;28;90614;-35
2022/11/01 07:50:27;;;;;;;3.70;1.63;;;14.40;99.90;;;;;;4979174;28;89311;-31
2022/11/01 07:53:01;;;;;;;3.70;1.38;;;14.40;99.90;;;;;;4979703;28;89442;-33
2022/11/01 07:55:27;;;;;;;3.17;2.22;;;14.50;99.90;;;;;;4979739;28;88901;-30
2022/11/01 07:57:53;;;;;;;4.65;1.67;;;14.50;99.90;;;;;;4979656;28;90969;-30
2022/11/01 08:00:18;;;;;;;2.95;2.03;;;14.60;99.90;;;;;;4979250;28;90301;-31
2022/11/01 08:02:44;;;;;;;4.45;1.92;;;14.60;99.90;;;;;;4978802;28;89585;-29
2022/11/01 08:05:11;;;;;;;3.13;1.42;;;14.70;99.90;;;;;;4979274;28;89882;-32
2022/11/01 08:07:38;;;;;;;5.00;1.85;;;14.80;99.90;;;;;;4979455;28;90361;-31
2022/11/01 08:10:10;;;;;;;3.78;1.70;;;14.90;99.90;;;;;;4978686;28;89222;-35
2022/11/01 08:12:36;;;;;;;9.45;1.58;;;15.10;99.90;;;;;;4978248;28;88399;-32
2022/11/01 08:15:02;;;;;;;4.80;2.10;;;15.20;99.90;;;;;;4979248;28;87574;-30
2022/11/01 08:17:28;;;;;;;5.57;2.47;;;15.20;99.90;;;;;;4979018;28;91613;-31
2022/11/01 08:19:54;;;;;;;5.00;2.28;;;15.20;99.90;;;;;;4978505;28;89940;-33
2022/11/01 08:22:19;;;;;;;5.00;2.30;;;15.20;99.90;;;;;;4970382;28;89270;-33
2022/11/01 08:24:45;;;;;;;10.52;3.70;;;15.00;99.90;;;;;;4976357;28;89809;-32
2022/11/01 08:27:11;;;;;;;5.32;2.55;;;15.00;99.90;;;;;;4985629;28;90032;-34
2022/11/01 08:29:36;;;;;;;17.13;3.42;;;15.00;99.90;;;;;;4978860;28;91009;-29
2022/11/01 08:32:02;;;;;;;2.35;1.23;;;15.00;99.90;;;;;;4978499;28;90393;-35
2022/11/01 08:34:29;;;;;;;7.40;3.25;;;15.00;99.90;;;;;;4979377;28;89119;-31
2022/11/01 08:36:55;;;;;;;22.50;3.53;;;15.00;99.90;;;;;;4978204;28;90098;-33
2022/11/01 08:39:21;;;;;;;4.65;1.98;;;15.10;99.90;;;;;;4979087;28;89450;-31
2022/11/01 08:41:48;;;;;;;8.10;2.90;;;15.20;99.90;;;;;;4978791;28;89623;-32
2022/11/01 08:44:16;;;;;;;8.38;2.90;;;15.20;99.90;;;;;;4978950;28;89021;-32
2022/11/01 08:46:42;;;;;;;25.02;3.88;;;15.20;99.90;;;;;;4978556;28;90134;-30
2022/11/01 08:49:09;;;;;;;6.50;3.03;;;15.20;99.90;;;;;;4978580;28;89758;-32
2022/11/01 08:51:35;;;;;;;4.78;2.17;;;15.20;99.90;;;;;;4978230;28;89395;-32
2022/11/01 08:54:00;;;;;;;21.25;3.55;;;15.30;99.90;;;;;;4978605;28;89417;-32
2022/11/01 08:56:26;;;;;;;10.52;2.63;;;15.30;99.90;;;;;;4980634;28;89249;-31
2022/11/01 08:58:53;;;;;;;5.70;2.70;;;15.30;99.90;;;;;;4979869;28;90043;-30
2022/11/01 09:01:20;;;;;;;8.60;3.33;;;15.30;99.90;;;;;;4970283;28;89333;-30
2022/11/01 09:03:46;;;;;;;11.32;2.92;;;15.30;99.90;;;;;;4981209;28;88329;-32
2022/11/01 09:06:11;;;;;;;6.85;3.00;;;15.30;99.90;;;;;;4978767;28;90733;-33
2022/11/01 09:08:37;;;;;;;34.50;4.88;;;15.40;99.90;;;;;;4978675;28;90117;-31
2022/11/01 09:11:05;;;;;;;4.60;2.17;;;15.40;99.90;;;;;;4979393;28;89454;-33
2022/11/01 09:13:33;;;;;;;7.60;3.40;;;15.40;99.90;;;;;;4979260;28;90181;-30
2022/11/01 09:16:07;;;;;;;24.10;6.25;;;15.40;99.90;;;;;;4979521;28;90288;-34
2022/11/01 09:18:33;;;;;;;6.38;3.10;;;15.40;99.90;;;;;;4978875;28;90391;-32
2022/11/01 09:20:59;;;;;;;11.20;3.47;;;15.50;99.90;;;;;;4978398;28;90041;-32
2022/11/01 09:23:25;;;;;;;14.43;3.28;;;15.50;99.90;;;;;;4965845;28;89583;-30
2022/11/01 09:25:51;;;;;;;11.50;3.50;;;15.50;99.90;;;;;;4977540;28;90130;-33
2022/11/01 09:28:16;;;;;;;11.00;2.78;;;15.50;99.90;;;;;;4979416;28;90128;-35
2022/11/01 09:30:42;;;;;;;8.48;4.40;;;15.50;99.90;;;;;;4979101;28;89563;-32
2022/11/01 09:33:08;;;;;;;10.15;3.58;;;15.50;99.90;;;;;;4979567;28;89081;-32
2022/11/01 09:35:34;;;;;;;15.77;3.83;;;15.50;99.90;;;;;;4979580;28;89937;-30
2022/11/01 09:38:01;;;;;;;6.43;2.65;;;15.50;99.90;;;;;;4978471;28;89338;-32
2022/11/01 09:40:29;;;;;;;5.28;2.40;;;15.50;99.90;;;;;;4979094;28;89777;-33
2022/11/01 09:42:56;;;;;;;8.77;3.00;;;15.50;99.90;;;;;;4978779;28;90023;-33
2022/11/01 09:45:25;;;;;;;9.30;2.80;;;15.50;99.90;;;;;;4979371;28;92051;-31
2022/11/01 09:47:54;;;;;;;10.57;3.42;;;15.60;99.90;;;;;;4978918;28;90042;-32
2022/11/01 09:50:25;;;;;;;5.00;2.35;;;15.60;99.90;;;;;;4978908;28;89945;-31
2022/11/01 09:52:54;;;;;;;6.55;3.45;;;15.50;99.90;;;;;;4979922;28;89340;-32
2022/11/01 09:55:24;;;;;;;;;;;15.60;99.90;;;;;;4979510;28;90223;-34
2022/11/01 09:58:00;;;;;;;6.95;3.63;;;15.60;99.90;;;;;;4980525;28;90127;-32
2022/11/01 10:00:32;;;;;;;14.57;3.42;;;15.60;99.90;;;;;;4978685;28;89485;-33
2022/11/01 10:03:18;;;;;;;9.15;3.55;;;15.60;99.90;;;;;;4979049;28;88820;-34
2022/11/01 10:06:09;;;;;;;15.95;3.22;;;15.60;99.90;;;;;;4978105;28;90364;-33
2022/11/01 10:08:42;;;;;;;9.77;3.13;;;15.60;99.90;;;;;;4978553;28;91096;-31
2022/11/01 10:11:35;;;;;;;7.57;3.03;;;15.70;99.90;;;;;;4978833;28;89987;-34
2022/11/01 10:14:19;;;;;;;9.57;2.53;;;15.80;99.90;;;;;;4978326;28;89482;-34
2022/11/01 10:16:53;;;;;;;5.38;2.90;;;15.70;99.90;;;;;;4978895;28;88862;-32
2022/11/01 10:19:22;;;;;;;12.95;3.45;;;15.70;99.90;;;;;;4978911;28;90953;-32
2022/11/01 10:21:55;;;;;;;8.15;2.85;;;15.70;99.90;;;;;;4973610;28;89588;-35
2022/11/01 10:24:29;;;;;;;17.15;3.88;;;15.80;99.90;;;;;;4971032;28;88861;-34
2022/11/01 10:27:01;;;;;;;9.88;4.82;;;15.90;99.90;;;;;;4978169;28;90116;-30
2022/11/01 10:29:57;;;;;;;12.90;3.38;;;15.90;99.90;;;;;;4979057;28;88522;-32
2022/11/01 10:33:01;;;;;;;16.67;4.28;;;16.00;99.90;;;;;;4977887;28;89915;-32
2022/11/01 10:35:32;;;;;;;15.55;3.78;;;15.90;99.90;;;;;;4969315;28;90261;-32
2022/11/01 10:38:36;;;;;;;8.75;2.65;;;16.00;99.90;;;;;;4977537;28;90163;-32
2022/11/01 10:41:31;;;;;;;9.20;2.92;;;16.00;99.90;;;;;;4979117;28;89587;-34
2022/11/01 10:44:01;;;;;;;10.25;3.13;;;16.10;99.90;;;;;;4977633;28;89534;-33
2022/11/01 10:46:31;;;;;;;16.02;3.85;;;16.10;99.90;;;;;;4978771;28;88988;-30
2022/11/01 10:49:03;;;;;;;16.65;3.85;;;16.00;99.90;;;;;;4978093;28;92507;-32
2022/11/01 10:51:32;;;;;;;10.10;3.88;;;16.10;99.90;;;;;;4977673;28;89710;-32
2022/11/01 10:54:02;;;;;;;14.02;3.35;;;16.00;99.90;;;;;;4978060;28;89968;-30
2022/11/01 10:56:40;;;;;;;10.50;3.72;;;16.00;99.90;;;;;;4976980;28;89796;-34
2022/11/01 10:59:29;;;;;;;12.38;2.72;;;16.10;99.90;;;;;;4978619;28;90039;-33
2022/11/01 11:01:55;;;;;;;8.38;3.78;;;16.20;99.90;;;;;;4977964;28;89723;-31
2022/11/01 11:04:23;;;;;;;18.38;3.92;;;16.20;99.90;;;;;;4978318;28;90083;-31
2022/11/01 11:06:50;;;;;;;6.28;2.90;;;16.20;99.90;;;;;;4977939;28;89079;-30
2022/11/01 11:09:33;;;;;;;13.93;4.22;;;16.20;99.90;;;;;;4978366;28;89827;-34
2022/11/01 11:12:02;;;;;;;22.15;4.40;;;16.20;99.90;;;;;;4976247;28;89677;-31
2022/11/01 11:14:31;;;;;;;10.38;2.90;;;16.20;99.90;;;;;;4978720;28;89277;-31
2022/11/01 11:16:58;;;;;;;8.98;2.63;;;16.10;99.90;;;;;;4977685;28;88961;-30
2022/11/01 11:19:32;;;;;;;11.90;4.38;;;16.20;99.90;;;;;;4977861;28;90340;-32
2022/11/01 11:22:00;;;;;;;8.75;3.15;;;16.30;99.90;;;;;;4974167;28;88672;-33
2022/11/01 11:24:33;;;;;;;20.33;4.17;;;16.30;99.90;;;;;;4972497;28;88921;-33
2022/11/01 11:27:01;;;;;;;23.05;4.63;;;16.30;99.90;;;;;;4978002;28;90087;-32
2022/11/01 11:29:36;;;;;;;10.82;4.57;;;16.20;99.90;;;;;;4979923;28;89870;-32
2022/11/01 11:32:05;;;;;;;9.05;3.42;;;16.30;99.90;;;;;;4978826;28;89601;-34
2022/11/01 11:34:37;;;;;;;13.98;3.17;;;16.30;99.90;;;;;;4980158;28;89762;-33
2022/11/01 11:37:06;;;;;;;13.02;4.00;;;16.40;99.90;;;;;;4979549;28;89465;-32
2022/11/01 11:39:35;;;;;;;12.30;3.08;;;16.50;99.90;;;;;;4978114;28;90896;-33
2022/11/01 11:42:13;;;;;;;10.20;3.38;;;16.50;99.90;;;;;;4978664;28;90007;-31
2022/11/01 11:44:41;;;;;;;;;;;16.60;99.90;;;;;;4980593;28;89168;-33
2022/11/01 11:47:18;;;;;;;7.72;3.30;;;16.60;99.90;;;;;;4981568;28;89396;-31
2022/11/01 11:49:43;;;;;;;9.95;4.25;;;16.70;99.90;;;;;;4979923;28;90118;-32
2022/11/01 11:52:15;;;;;;;13.50;3.88;;;16.80;99.90;;;;;;4979113;28;90528;-31
2022/11/01 11:54:42;;;;;;;11.95;3.08;;;17.00;99.90;;;;;;4979001;28;90842;-31
2022/11/01 11:57:21;;;;;;;11.07;4.35;;;17.00;99.90;;;;;;4979591;28;87672;-33
2022/11/01 12:00:00;;;;;;;12.90;4.35;;;17.10;99.90;;;;;;4979224;28;90121;-33
2022/11/01 12:02:26;;;;;;;10.77;3.63;;;17.00;99.90;;;;;;4979585;28;89232;-34
2022/11/01 12:05:02;;;;;;;9.48;3.13;;;17.00;99.90;;;;;;4979562;28;89879;-34
2022/11/01 12:07:28;;;;;;;10.68;3.85;;;16.90;99.90;;;;;;4979672;28;87796;-33
2022/11/01 12:09:55;;;;;;;12.80;3.80;;;16.90;99.90;;;;;;4979697;28;90095;-32
2022/11/01 12:12:27;;;;;;;11.40;3.25;;;17.00;99.90;;;;;;4979222;28;89898;-34
2022/11/01 12:14:55;;;;;;;12.45;5.05;;;17.00;99.90;;;;;;4978522;28;89898;-35
2022/11/01 12:17:30;;;;;;;9.40;2.67;;;16.90;99.90;;;;;;4979475;28;89100;-32
2022/11/01 12:20:20;;;;;;;8.70;3.00;;;17.00;99.90;;;;;;4965671;28;90296;-35
2022/11/01 12:23:09;;;;;;;22.42;3.85;;;17.00;99.90;;;;;;4963166;28;91708;-31
2022/11/01 12:25:36;;;;;;;9.60;3.40;;;16.90;99.90;;;;;;4966866;28;89615;-31
2022/11/01 12:28:05;;;;;;;6.15;2.97;;;17.00;99.90;;;;;;4978679;28;89066;-31
2022/11/01 12:30:34;;;;;;;33.03;6.93;;;17.10;99.90;;;;;;4978224;28;90291;-35
2022/11/01 12:33:16;;;;;;;15.05;4.55;;;17.00;99.90;;;;;;4982053;28;90184;-33
2022/11/01 12:35:44;;;;;;;9.23;2.85;;;17.10;99.90;;;;;;4970051;28;89983;-32
2022/11/01 12:38:22;;;;;;;12.50;3.30;;;17.00;99.90;;;;;;4982310;28;90211;-30
2022/11/01 12:40:53;;;;;;;8.23;3.60;;;17.10;99.90;;;;;;4964458;28;90119;-33
2022/11/01 12:43:49;;;;;;;9.88;4.03;;;17.10;99.90;;;;;;4976002;28;91038;-31
2022/11/01 12:46:30;;;;;;;7.38;2.65;;;17.10;99.90;;;;;;4972769;28;89747;-32
2022/11/01 12:49:04;;;;;;;10.07;2.38;;;17.10;99.90;;;;;;4982591;28;89712;-30
2022/11/01 12:51:40;;;;;;;8.77;2.88;;;17.10;99.90;;;;;;4982763;28;90737;-36
2022/11/01 12:54:27;;;;;;;2.33;1.85;;;17.10;99.90;;;;;;4982629;28;89706;-29
2022/11/01 12:56:55;;;;;;;5.10;1.87;;;17.00;99.90;;;;;;4982336;28;90426;-32
2022/11/01 12:59:26;;;;;;;11.40;3.80;;;17.00;99.90;;;;;;4982436;28;89534;-31
2022/11/01 13:02:32;;;;;;;11.63;2.45;;;17.00;99.90;;;;;;4982216;28;89745;-33
2022/11/01 13:05:20;;;;;;;14.23;3.00;;;17.00;99.90;;;;;;4979986;28;89671;-32